Time;durP1;ratioP1;P1;durP2;ratioP2;P2;SDS_P1;SDS_P2;PMS_P1;PMS_P2;Temp;Humidity;BMP_temperature;BMP_pressure;BME280_temperature;BME280_humidity;BME280_pressure;Samples;Min_cycle;Max_cycle;Signal;HPM_P1;HPM_P2
2022/06/12 00:00:33;;;;;;;3.53;2.60;;;14.50;57.00;;;;;;5020538;28;20219;-60
2022/06/12 00:03:05;;;;;;;4.43;2.38;;;14.50;58.00;;;;;;5031724;28;20659;-60
2022/06/12 00:05:39;;;;;;;4.28;2.10;;;14.50;57.40;;;;;;5023892;28;20201;-60
2022/06/12 00:08:10;;;;;;;3.50;2.30;;;14.50;57.30;;;;;;5011196;28;20232;-59
2022/06/12 00:10:45;;;;;;;4.93;2.50;;;14.50;57.20;;;;;;5011047;28;20240;-61
2022/06/12 00:13:19;;;;;;;4.30;2.10;;;14.60;57.30;;;;;;5011427;28;20197;-60
2022/06/12 00:15:52;;;;;;;3.90;2.17;;;14.60;57.30;;;;;;5026951;28;20700;-61
2022/06/12 00:18:23;;;;;;;4.10;2.40;;;14.50;57.10;;;;;;5031092;28;20228;-60
2022/06/12 00:21:10;;;;;;;4.50;2.10;;;14.60;57.10;;;;;;5028710;28;20224;-60
2022/06/12 00:23:43;;;;;;;3.53;2.00;;;14.60;57.00;;;;;;5012262;28;20205;-59
2022/06/12 00:26:18;;;;;;;6.03;2.55;;;14.60;56.90;;;;;;5005655;28;20201;-60
2022/06/12 00:28:48;;;;;;;5.18;2.40;;;14.60;57.00;;;;;;5010973;28;20216;-59
2022/06/12 00:31:19;;;;;;;2.95;2.35;;;14.60;57.00;;;;;;5011744;28;20567;-59
2022/06/12 00:33:50;;;;;;;3.90;2.17;;;14.60;57.10;;;;;;5027714;28;20207;-59
2022/06/12 00:36:20;;;;;;;3.35;1.92;;;14.60;57.00;;;;;;5017638;28;20213;-60
2022/06/12 00:38:51;;;;;;;4.63;2.40;;;14.70;57.10;;;;;;5011175;28;20736;-61
2022/06/12 00:41:24;;;;;;;3.38;2.05;;;14.70;57.10;;;;;;5010192;28;20239;-60
2022/06/12 00:43:55;;;;;;;4.75;2.15;;;14.70;57.10;;;;;;5010792;28;20211;-59
2022/06/12 00:46:42;;;;;;;5.88;2.97;;;14.70;57.10;;;;;;4991747;28;20198;-58
2022/06/12 00:49:16;;;;;;;3.80;1.20;;;14.70;57.40;;;;;;4991005;28;20217;-57
2022/06/12 00:51:49;;;;;;;1.88;0.77;;;14.70;57.90;;;;;;4990765;28;20201;-59
2022/06/12 00:54:21;;;;;;;0.98;0.43;;;14.70;57.90;;;;;;4991311;28;20205;-62
2022/06/12 00:56:57;;;;;;;0.65;0.40;;;14.70;58.10;;;;;;4991531;28;20202;-60
2022/06/12 00:59:37;;;;;;;2.35;0.60;;;14.70;58.40;;;;;;4991486;28;20288;-62
2022/06/12 01:02:09;;;;;;;0.57;0.40;;;14.70;58.40;;;;;;4990807;28;20220;-59
2022/06/12 01:07:38;;;;;;;1.63;1.30;;;14.70;58.90;;;;;;4991362;28;20704;-62
2022/06/12 01:10:12;;;;;;;1.42;1.20;;;14.70;59.10;;;;;;4991259;28;20251;-65
2022/06/12 01:12:51;;;;;;;0.95;0.70;;;14.60;59.40;;;;;;4991351;28;20563;-62
2022/06/12 01:15:25;;;;;;;1.05;0.40;;;14.70;59.70;;;;;;4990780;28;20606;-62
2022/06/12 01:17:56;;;;;;;1.25;0.30;;;14.60;59.90;;;;;;4990420;28;20218;-61
2022/06/12 01:20:30;;;;;;;0.30;0.30;;;14.60;60.10;;;;;;4991547;28;20229;-62
2022/06/12 01:23:33;;;;;;;0.85;0.50;;;14.60;60.20;;;;;;4991052;28;20202;-62
2022/06/12 01:26:29;;;;;;;0.30;0.30;;;14.60;60.30;;;;;;4991120;28;20594;-59
2022/06/12 01:29:03;;;;;;;0.43;0.40;;;14.60;60.20;;;;;;4990353;28;20214;-64
2022/06/12 01:31:47;;;;;;;0.88;0.70;;;14.60;60.20;;;;;;4992667;28;20201;-60
2022/06/12 01:34:28;;;;;;;2.65;1.70;;;14.60;60.30;;;;;;5023295;28;20189;-62
2022/06/12 01:37:08;;;;;;;1.60;0.90;;;14.60;60.40;;;;;;5013021;28;20208;-61
2022/06/12 01:39:46;;;;;;;1.27;0.60;;;14.60;60.30;;;;;;5014386;28;20196;-60
2022/06/12 01:42:29;;;;;;;0.80;0.40;;;14.60;60.30;;;;;;5014778;28;20208;-61
2022/06/12 01:45:14;;;;;;;0.55;0.55;;;14.60;60.30;;;;;;5014577;28;20200;-58
2022/06/12 01:47:54;;;;;;;1.92;0.90;;;14.60;60.40;;;;;;5014654;28;20220;-62
2022/06/12 01:50:34;;;;;;;1.35;1.20;;;14.50;60.50;;;;;;5013503;28;20205;-57
2022/06/12 01:53:13;;;;;;;0.80;0.70;;;14.50;60.60;;;;;;5013364;28;20224;-61
2022/06/12 01:55:51;;;;;;;0.30;0.30;;;14.50;60.70;;;;;;5013693;28;20267;-61
2022/06/12 01:58:29;;;;;;;0.35;0.35;;;14.50;60.90;;;;;;5013590;28;20301;-62
2022/06/12 02:01:08;;;;;;;0.45;0.40;;;14.50;60.90;;;;;;5013708;28;20220;-61
2022/06/12 02:03:45;;;;;;;0.30;0.30;;;14.50;61.00;;;;;;5013594;28;20193;-62
2022/06/12 02:06:21;;;;;;;0.20;0.20;;;14.50;61.10;;;;;;5013501;28;20207;-61
2022/06/12 02:08:57;;;;;;;1.67;0.30;;;14.50;61.40;;;;;;5014304;28;20722;-62
2022/06/12 02:14:26;;;;;;;0.63;0.43;;;14.40;61.70;;;;;;4995911;28;20193;-62
2022/06/12 02:17:03;;;;;;;0.47;0.40;;;14.40;61.80;;;;;;5013558;28;20258;-61
2022/06/12 02:19:37;;;;;;;0.50;0.38;;;14.40;61.90;;;;;;5015343;28;20189;-60
2022/06/12 02:22:11;;;;;;;1.23;0.40;;;14.40;62.40;;;;;;5026422;28;20219;-60
2022/06/12 02:24:45;;;;;;;1.42;0.65;;;14.40;62.40;;;;;;5032665;28;20211;-62
2022/06/12 02:27:19;;;;;;;0.98;0.50;;;14.40;62.50;;;;;;5033117;28;20223;-61
2022/06/12 02:29:54;;;;;;;0.65;0.40;;;14.40;62.50;;;;;;5033154;28;20290;-58
2022/06/12 02:32:30;;;;;;;1.05;0.60;;;14.40;62.50;;;;;;5033451;28;20207;-60
2022/06/12 02:35:06;;;;;;;0.50;0.40;;;14.40;62.50;;;;;;5030741;28;20203;-60
2022/06/12 02:37:41;;;;;;;1.35;0.65;;;14.50;62.40;;;;;;5013283;28;20282;-61
2022/06/12 02:40:20;;;;;;;0.52;0.50;;;14.50;62.40;;;;;;5012965;28;20227;-62
2022/06/12 02:42:53;;;;;;;1.33;0.70;;;14.50;62.30;;;;;;5012526;28;20201;-60
2022/06/12 02:45:29;;;;;;;1.10;0.90;;;14.50;62.20;;;;;;5012700;28;20661;-61
2022/06/12 02:48:02;;;;;;;2.42;1.02;;;14.50;62.10;;;;;;5012056;28;20251;-61
2022/06/12 02:50:38;;;;;;;1.50;0.98;;;14.60;62.10;;;;;;5012005;28;20204;-60
2022/06/12 02:53:21;;;;;;;3.35;1.27;;;14.60;62.40;;;;;;5012908;28;20197;-52
2022/06/12 02:55:59;;;;;;;2.60;1.17;;;14.60;63.70;;;;;;5012988;28;20614;-58
2022/06/12 02:58:40;;;;;;;6.13;1.40;;;14.80;64.70;;;;;;5013153;28;20227;-61
2022/06/12 03:01:14;;;;;;;5.00;1.20;;;14.80;64.80;;;;;;5012635;28;20220;-61
2022/06/12 03:03:51;;;;;;;4.70;1.15;;;14.90;64.70;;;;;;5015265;28;20193;-59
2022/06/12 03:06:22;;;;;;;1.70;1.02;;;15.00;64.80;;;;;;5012226;28;20254;-61
2022/06/12 03:08:55;;;;;;;1.88;1.23;;;15.00;64.70;;;;;;5011665;28;20219;-60
2022/06/12 03:11:28;;;;;;;2.42;1.10;;;15.10;64.90;;;;;;5012732;28;20630;-61
2022/06/12 03:14:00;;;;;;;2.65;1.10;;;15.10;64.80;;;;;;5011856;28;20722;-62
2022/06/12 03:16:33;;;;;;;5.55;1.20;;;15.20;64.90;;;;;;5012581;28;20197;-61
2022/06/12 03:19:10;;;;;;;1.95;1.15;;;15.20;65.00;;;;;;5012367;28;20256;-61
2022/06/12 03:21:45;;;;;;;2.38;1.25;;;15.20;64.60;;;;;;5012058;28;20220;-61
2022/06/12 03:24:35;;;;;;;2.85;1.10;;;15.30;64.30;;;;;;5011868;28;20204;-61
2022/06/12 03:27:20;;;;;;;1.90;1.23;;;15.30;64.00;;;;;;5012794;28;20201;-60
2022/06/12 03:30:03;;;;;;;3.75;1.10;;;15.30;63.70;;;;;;5011347;28;20200;-59
2022/06/12 03:32:41;;;;;;;2.88;1.10;;;15.30;63.40;;;;;;5012027;28;20204;-60
2022/06/12 03:35:21;;;;;;;1.58;1.00;;;15.30;63.10;;;;;;5011650;28;20200;-61
2022/06/12 03:37:58;;;;;;;1.48;1.00;;;15.30;62.90;;;;;;5011383;28;20223;-60
2022/06/12 03:40:36;;;;;;;2.20;1.00;;;15.30;62.60;;;;;;4992899;28;20201;-60
2022/06/12 03:43:15;;;;;;;3.20;0.95;;;15.40;62.60;;;;;;5013331;28;20672;-60
2022/06/12 03:45:51;;;;;;;2.55;0.95;;;15.30;62.40;;;;;;5011505;28;20211;-61
2022/06/12 03:48:35;;;;;;;3.05;1.20;;;15.30;62.30;;;;;;5011676;28;20239;-60
2022/06/12 03:51:16;;;;;;;2.65;0.85;;;15.40;62.20;;;;;;5011158;28;20207;-62
2022/06/12 03:53:50;;;;;;;2.63;1.00;;;15.40;62.10;;;;;;5010433;28;20628;-62
2022/06/12 03:59:20;;;;;;;1.80;0.85;;;15.40;61.90;;;;;;5011667;28;20215;-62
2022/06/12 04:01:52;;;;;;;2.17;1.30;;;15.40;61.70;;;;;;5011215;28;20704;-61
2022/06/12 04:04:25;;;;;;;2.85;1.00;;;15.40;61.60;;;;;;5011446;28;20193;-61
2022/06/12 04:07:00;;;;;;;3.28;0.93;;;15.40;61.50;;;;;;5011813;28;20204;-60
2022/06/12 04:09:34;;;;;;;1.98;0.90;;;15.40;61.50;;;;;;5011513;28;20222;-61
2022/06/12 04:12:10;;;;;;;2.45;1.15;;;15.40;61.30;;;;;;5011412;28;20201;-60
2022/06/12 04:14:44;;;;;;;2.25;0.93;;;15.40;61.30;;;;;;5011485;28;20801;-60
2022/06/12 04:17:15;;;;;;;1.65;0.88;;;15.30;61.10;;;;;;5011393;28;20219;-62
2022/06/12 04:20:05;;;;;;;1.92;1.10;;;15.40;61.00;;;;;;5011931;28;20201;-63
2022/06/12 04:22:48;;;;;;;1.88;0.98;;;15.30;60.90;;;;;;5013405;28;20733;-61
2022/06/12 04:25:32;;;;;;;1.35;1.00;;;15.30;60.90;;;;;;5011434;28;20200;-60
2022/06/12 04:28:04;;;;;;;1.80;0.90;;;15.30;60.80;;;;;;5011045;28;20248;-61
2022/06/12 04:30:38;;;;;;;1.60;0.93;;;15.30;60.70;;;;;;5011813;28;20587;-61
2022/06/12 04:33:42;;;;;;;1.38;0.90;;;15.30;60.80;;;;;;5010864;28;20737;-59
2022/06/12 04:36:13;;;;;;;2.28;0.85;;;15.30;60.80;;;;;;5011386;28;20204;-63
2022/06/12 04:38:45;;;;;;;1.77;0.82;;;15.30;60.70;;;;;;5010581;28;20579;-61
2022/06/12 04:41:24;;;;;;;1.58;0.77;;;15.30;60.70;;;;;;5010562;28;20220;-60
2022/06/12 04:43:54;;;;;;;2.15;0.95;;;15.30;60.60;;;;;;5011092;28;20200;-60
2022/06/12 04:46:26;;;;;;;1.38;0.90;;;15.30;60.60;;;;;;5011319;28;20196;-60
2022/06/12 04:48:59;;;;;;;3.42;0.88;;;15.30;60.50;;;;;;5010897;28;20216;-60
2022/06/12 04:51:30;;;;;;;1.58;0.82;;;15.30;60.50;;;;;;5011467;28;20201;-60
2022/06/12 04:54:03;;;;;;;1.40;0.88;;;15.30;60.40;;;;;;5010393;28;20575;-61
2022/06/12 04:56:36;;;;;;;1.55;0.70;;;15.30;60.40;;;;;;5011436;28;20216;-60
2022/06/12 04:59:07;;;;;;;2.75;0.98;;;15.30;60.30;;;;;;5010356;28;20271;-60
2022/06/12 05:01:38;;;;;;;1.67;1.13;;;15.30;60.30;;;;;;5010352;28;20224;-61
2022/06/12 05:04:09;;;;;;;1.73;0.80;;;15.30;60.40;;;;;;5027294;28;20188;-58
2022/06/12 05:06:41;;;;;;;2.78;0.90;;;15.30;60.40;;;;;;5014518;28;20204;-59
2022/06/12 05:09:16;;;;;;;1.65;0.85;;;15.20;60.40;;;;;;5015194;28;20212;-60
2022/06/12 05:11:50;;;;;;;1.50;0.75;;;15.20;60.40;;;;;;5014777;28;20203;-59
2022/06/12 05:14:21;;;;;;;1.35;0.90;;;15.20;60.40;;;;;;5015233;28;20227;-58
2022/06/12 05:16:53;;;;;;;2.03;0.77;;;15.20;60.40;;;;;;5014315;28;20548;-60
2022/06/12 05:19:27;;;;;;;2.22;0.80;;;15.20;60.40;;;;;;5014851;28;20200;-60
2022/06/12 05:21:58;;;;;;;0.90;0.75;;;15.20;60.40;;;;;;5014512;28;20259;-59
2022/06/12 05:24:30;;;;;;;2.00;0.85;;;15.20;60.40;;;;;;5014820;28;20192;-59
2022/06/12 05:27:01;;;;;;;1.55;1.10;;;15.20;60.30;;;;;;5013713;28;20207;-59
2022/06/12 05:29:34;;;;;;;1.23;0.80;;;15.30;60.40;;;;;;5015157;28;20209;-66
2022/06/12 05:32:06;;;;;;;1.40;0.85;;;15.20;60.30;;;;;;5021840;28;20192;-63
2022/06/12 05:34:37;;;;;;;0.95;0.68;;;15.20;60.30;;;;;;5034137;28;20211;-62
2022/06/12 05:37:09;;;;;;;0.85;0.57;;;15.20;60.20;;;;;;5015289;28;20212;-62
2022/06/12 05:39:41;;;;;;;0.95;0.85;;;15.20;60.10;;;;;;5013773;28;20677;-59
2022/06/12 05:42:12;;;;;;;1.67;0.68;;;15.20;60.20;;;;;;5014045;28;20252;-64
2022/06/12 05:44:44;;;;;;;2.80;0.77;;;15.30;60.20;;;;;;5014807;28;20197;-59
2022/06/12 05:47:15;;;;;;;1.58;0.80;;;15.20;60.10;;;;;;5017476;28;20260;-60
2022/06/12 05:49:46;;;;;;;1.13;0.82;;;15.20;60.00;;;;;;5033818;28;20200;-58
2022/06/12 05:52:17;;;;;;;1.10;0.70;;;15.20;60.80;;;;;;5034172;28;20617;-59
2022/06/12 05:54:49;;;;;;;0.80;0.60;;;15.20;60.00;;;;;;5033945;28;20210;-63
2022/06/12 05:57:20;;;;;;;1.38;0.80;;;15.20;60.00;;;;;;5033027;28;20220;-57
2022/06/12 05:59:51;;;;;;;1.35;0.80;;;15.20;60.10;;;;;;5032910;28;20589;-56
2022/06/12 06:02:22;;;;;;;0.70;0.70;;;15.20;60.40;;;;;;5032999;28;20224;-57
2022/06/12 06:04:52;;;;;;;0.77;0.70;;;15.20;60.70;;;;;;5033099;28;20585;-59
2022/06/12 06:07:23;;;;;;;1.60;0.80;;;15.20;60.60;;;;;;5013287;28;20224;-60
2022/06/12 06:09:56;;;;;;;1.00;0.80;;;15.20;60.50;;;;;;5014077;28;20200;-58
2022/06/12 06:12:26;;;;;;;0.95;0.65;;;15.20;60.50;;;;;;5018552;28;20199;-58
2022/06/12 06:14:57;;;;;;;1.92;0.70;;;15.20;60.40;;;;;;5033632;28;20204;-59
2022/06/12 06:17:28;;;;;;;0.75;0.70;;;15.20;60.40;;;;;;5032363;28;20220;-57
2022/06/12 06:19:59;;;;;;;0.88;0.80;;;15.20;60.30;;;;;;5033831;28;20196;-57
2022/06/12 06:22:29;;;;;;;1.30;0.77;;;15.20;60.30;;;;;;5016774;28;20224;-56
2022/06/12 06:25:02;;;;;;;1.15;0.70;;;15.20;60.20;;;;;;5013224;28;20232;-60
2022/06/12 06:27:33;;;;;;;0.80;0.70;;;15.20;60.10;;;;;;5013857;28;20578;-56
2022/06/12 06:30:04;;;;;;;1.63;0.73;;;15.20;60.10;;;;;;5013415;28;20579;-58
2022/06/12 06:32:34;;;;;;;0.80;0.70;;;15.20;60.00;;;;;;5013635;28;20204;-57
2022/06/12 06:35:06;;;;;;;0.73;0.60;;;15.20;60.00;;;;;;5012965;28;20197;-56
2022/06/12 06:37:37;;;;;;;0.73;0.73;;;15.20;60.00;;;;;;5013342;28;20688;-56
2022/06/12 06:40:13;;;;;;;0.70;0.70;;;15.20;60.00;;;;;;5012505;28;20641;-57
2022/06/12 06:42:44;;;;;;;0.95;0.57;;;15.20;60.00;;;;;;5012613;28;20688;-58
2022/06/12 06:48:03;;;;;;;1.48;0.80;;;15.20;59.90;;;;;;5013135;28;20223;-59
2022/06/12 06:50:35;;;;;;;0.60;0.60;;;15.20;59.90;;;;;;5013273;28;20657;-58
2022/06/12 06:53:07;;;;;;;0.93;0.75;;;15.10;59.90;;;;;;5013063;28;20204;-57
2022/06/12 06:55:40;;;;;;;1.88;0.70;;;15.10;59.90;;;;;;5013502;28;20201;-57
2022/06/12 06:58:13;;;;;;;0.77;0.70;;;15.10;59.90;;;;;;5012793;28;20231;-59
2022/06/12 07:00:44;;;;;;;1.08;0.80;;;15.10;59.90;;;;;;5013127;28;20193;-57
2022/06/12 07:03:16;;;;;;;0.88;0.82;;;15.10;59.90;;;;;;5012291;28;20273;-58
2022/06/12 07:05:51;;;;;;;1.25;1.00;;;15.10;59.90;;;;;;5012350;28;20247;-57
2022/06/12 07:08:23;;;;;;;0.88;0.88;;;15.10;59.90;;;;;;5012029;28;20216;-58
2022/06/12 07:10:56;;;;;;;1.30;0.95;;;15.10;59.90;;;;;;5012483;28;20208;-58
2022/06/12 07:13:27;;;;;;;1.27;1.15;;;15.10;59.80;;;;;;5012537;28;20193;-58
2022/06/12 07:15:58;;;;;;;1.02;0.93;;;15.10;59.80;;;;;;5012408;28;20235;-57
2022/06/12 07:18:28;;;;;;;1.05;0.90;;;15.10;59.80;;;;;;5012837;28;20232;-59
2022/06/12 07:21:03;;;;;;;0.85;0.80;;;15.10;59.80;;;;;;5012809;28;20193;-58
2022/06/12 07:23:35;;;;;;;0.80;0.70;;;15.10;59.80;;;;;;5012476;28;20318;-58
2022/06/12 07:26:10;;;;;;;1.00;0.80;;;15.10;59.80;;;;;;5012302;28;20197;-58
2022/06/12 07:28:41;;;;;;;1.00;0.90;;;15.10;59.80;;;;;;5011142;28;20239;-58
2022/06/12 07:31:12;;;;;;;2.88;1.00;;;15.10;59.80;;;;;;5012758;28;20196;-59
2022/06/12 07:33:43;;;;;;;1.00;0.90;;;15.10;59.80;;;;;;5012406;28;20216;-58
2022/06/12 07:36:15;;;;;;;1.35;1.00;;;15.10;59.80;;;;;;5011389;28;20558;-58
2022/06/12 07:38:47;;;;;;;1.17;0.85;;;15.00;59.80;;;;;;5012318;28;20220;-59
2022/06/12 07:41:21;;;;;;;1.00;0.90;;;15.00;59.80;;;;;;5012664;28;20605;-60
2022/06/12 07:43:52;;;;;;;0.93;0.85;;;15.00;59.80;;;;;;5012611;28;20228;-60
2022/06/12 07:46:24;;;;;;;1.10;0.90;;;15.00;59.80;;;;;;5012657;28;20205;-58
2022/06/12 07:48:54;;;;;;;0.95;0.80;;;15.00;59.80;;;;;;5012283;28;20232;-58
2022/06/12 07:51:26;;;;;;;1.15;0.98;;;15.00;59.80;;;;;;5011719;28;20196;-58
2022/06/12 07:53:57;;;;;;;0.93;0.90;;;15.00;59.80;;;;;;5014181;28;20697;-58
2022/06/12 07:56:30;;;;;;;1.08;0.98;;;15.00;59.80;;;;;;5011609;28;20208;-58
2022/06/12 07:59:01;;;;;;;1.00;0.90;;;15.00;59.80;;;;;;5011614;28;20217;-63
2022/06/12 08:01:32;;;;;;;1.00;0.80;;;15.00;59.80;;;;;;5011883;28;20787;-59
2022/06/12 08:04:03;;;;;;;1.10;1.00;;;15.00;59.80;;;;;;5011543;28;20225;-58
2022/06/12 08:06:34;;;;;;;1.10;0.77;;;15.00;60.00;;;;;;5011211;28;20197;-60
2022/06/12 08:09:05;;;;;;;1.20;0.90;;;15.00;59.90;;;;;;5011866;28;20238;-57
2022/06/12 08:11:38;;;;;;;0.93;0.82;;;15.00;59.90;;;;;;5011981;28;20247;-58
2022/06/12 08:14:09;;;;;;;0.77;0.77;;;15.00;59.80;;;;;;5011604;28;20197;-58
2022/06/12 08:16:40;;;;;;;1.15;0.90;;;15.00;59.80;;;;;;5013902;28;20193;-57
2022/06/12 08:21:55;;;;;;;2.30;0.90;;;15.00;59.80;;;;;;5011134;28;20209;-59
2022/06/12 08:24:26;;;;;;;1.08;0.90;;;15.00;59.80;;;;;;5011957;28;20561;-59
2022/06/12 08:26:59;;;;;;;1.23;0.95;;;15.00;59.70;;;;;;5011713;28;20331;-59
2022/06/12 08:29:29;;;;;;;1.20;1.10;;;15.00;59.80;;;;;;5012446;28;20201;-57
2022/06/12 08:32:03;;;;;;;1.38;0.93;;;15.00;60.50;;;;;;5011325;28;20580;-58
2022/06/12 08:34:37;;;;;;;1.00;0.90;;;15.00;59.80;;;;;;5011743;28;20338;-57
2022/06/12 08:37:13;;;;;;;1.00;0.90;;;14.90;59.80;;;;;;5010915;28;20447;-58
2022/06/12 08:39:44;;;;;;;1.55;1.00;;;14.90;59.80;;;;;;5011373;28;20200;-58
2022/06/12 08:42:22;;;;;;;1.58;1.20;;;15.00;59.80;;;;;;5011178;28;20221;-58
2022/06/12 08:44:56;;;;;;;1.55;0.90;;;15.00;59.70;;;;;;5011264;28;20673;-56
2022/06/12 08:47:36;;;;;;;0.95;0.85;;;14.90;59.60;;;;;;5011101;28;20247;-59
2022/06/12 08:50:13;;;;;;;0.80;0.77;;;15.00;59.70;;;;;;5011587;28;20203;-59
2022/06/12 08:52:49;;;;;;;1.10;0.90;;;14.90;59.70;;;;;;4991922;28;20201;-58
2022/06/12 08:55:24;;;;;;;1.13;1.00;;;14.90;59.70;;;;;;4991764;28;20201;-57
2022/06/12 08:58:01;;;;;;;0.93;0.73;;;14.90;59.70;;;;;;4991488;28;20300;-61
2022/06/12 09:00:35;;;;;;;1.13;1.02;;;14.90;59.70;;;;;;4991414;28;20198;-57
2022/06/12 09:03:08;;;;;;;0.80;0.75;;;14.90;59.70;;;;;;4997770;28;20801;-58
2022/06/12 09:05:46;;;;;;;0.82;0.82;;;14.90;59.60;;;;;;4997824;28;20202;-55
2022/06/12 09:08:25;;;;;;;1.42;1.05;;;14.90;59.60;;;;;;5011320;28;20243;-58
2022/06/12 09:11:02;;;;;;;1.50;1.00;;;14.90;59.60;;;;;;5011203;28;20200;-59
2022/06/12 09:13:42;;;;;;;0.93;0.70;;;14.90;59.60;;;;;;5011037;28;20204;-58
2022/06/12 09:16:20;;;;;;;1.40;1.02;;;14.90;59.60;;;;;;5011195;28;20196;-59
2022/06/12 09:18:58;;;;;;;1.63;1.13;;;14.90;59.60;;;;;;5011229;28;20213;-58
2022/06/12 09:21:36;;;;;;;1.80;1.10;;;14.90;59.60;;;;;;5010752;28;20196;-59
2022/06/12 09:24:20;;;;;;;1.30;1.20;;;14.80;59.60;;;;;;5010976;28;20234;-59
2022/06/12 09:27:03;;;;;;;1.13;1.02;;;14.80;59.60;;;;;;5010622;28;20200;-58
2022/06/12 09:29:46;;;;;;;1.52;1.30;;;14.80;59.50;;;;;;5011268;28;20274;-59
2022/06/12 09:32:27;;;;;;;1.40;1.23;;;14.80;59.50;;;;;;5010586;28;20196;-58
2022/06/12 09:35:07;;;;;;;1.55;1.40;;;14.80;59.40;;;;;;5010647;28;20554;-60
2022/06/12 09:40:39;;;;;;;2.30;2.10;;;14.80;59.50;;;;;;5010832;28;20554;-58
2022/06/12 09:43:21;;;;;;;2.20;1.75;;;14.70;59.70;;;;;;5010342;28;20697;-60
2022/06/12 09:46:02;;;;;;;1.90;1.70;;;14.80;60.00;;;;;;5010357;28;20197;-57
2022/06/12 09:48:46;;;;;;;3.28;2.35;;;14.70;59.90;;;;;;5010630;28;20216;-58
2022/06/12 09:51:26;;;;;;;3.67;2.13;;;14.70;60.10;;;;;;5007556;28;20199;-58
2022/06/12 09:54:21;;;;;;;2.47;2.13;;;14.70;60.30;;;;;;5011157;28;20271;-59
2022/06/12 09:56:54;;;;;;;3.85;1.95;;;14.80;60.30;;;;;;5015727;28;20209;-61
2022/06/12 09:59:32;;;;;;;2.40;2.00;;;14.80;60.30;;;;;;5033412;28;20193;-59
2022/06/12 10:02:13;;;;;;;2.67;2.13;;;14.70;60.30;;;;;;5033683;28;20202;-59
2022/06/12 10:04:49;;;;;;;2.25;2.00;;;14.80;60.30;;;;;;5033409;28;20201;-58
2022/06/12 10:07:26;;;;;;;2.65;2.17;;;14.70;60.20;;;;;;5005482;28;20598;-60
2022/06/12 10:10:03;;;;;;;3.25;1.98;;;14.70;60.20;;;;;;5018933;28;20185;-59
2022/06/12 10:12:38;;;;;;;2.20;2.00;;;14.70;60.20;;;;;;5013730;28;20204;-58
2022/06/12 10:15:14;;;;;;;2.22;2.03;;;14.70;60.10;;;;;;5009229;28;20240;-58
2022/06/12 10:17:52;;;;;;;2.17;1.75;;;14.70;60.00;;;;;;5004743;28;20236;-59
2022/06/12 10:20:26;;;;;;;2.30;1.90;;;14.70;60.00;;;;;;5013767;28;20728;-60
2022/06/12 10:22:58;;;;;;;2.03;1.80;;;14.70;59.90;;;;;;5013654;28;20217;-59
2022/06/12 10:25:33;;;;;;;2.10;1.90;;;14.70;59.90;;;;;;5013274;28;20204;-58
2022/06/12 10:28:06;;;;;;;2.40;2.08;;;14.70;59.90;;;;;;5027237;28;20220;-60
2022/06/12 10:30:40;;;;;;;2.88;2.30;;;14.70;59.90;;;;;;5033774;28;20959;-60
2022/06/12 10:33:30;;;;;;;2.95;2.10;;;14.70;60.50;;;;;;5033410;28;20227;-57
2022/06/12 10:36:03;;;;;;;2.35;1.70;;;14.70;59.80;;;;;;5022454;28;20247;-59
2022/06/12 10:38:36;;;;;;;2.30;1.80;;;14.70;59.80;;;;;;5012208;28;20220;-58
2022/06/12 10:41:09;;;;;;;2.28;1.83;;;14.60;59.70;;;;;;5013303;28;20200;-59
2022/06/12 10:43:41;;;;;;;2.25;2.05;;;14.60;59.80;;;;;;5014796;28;20224;-60
2022/06/12 10:46:22;;;;;;;2.00;1.80;;;14.60;59.80;;;;;;5033339;28;20254;-59
2022/06/12 10:49:06;;;;;;;4.15;2.25;;;14.60;59.70;;;;;;5032332;28;20220;-59
2022/06/12 10:51:39;;;;;;;2.10;1.90;;;14.60;59.80;;;;;;5032696;28;20203;-59
2022/06/12 10:54:17;;;;;;;2.00;1.80;;;14.60;59.80;;;;;;5033093;28;20385;-59
2022/06/12 10:56:55;;;;;;;2.45;2.05;;;14.60;60.70;;;;;;5031641;28;20715;-58
2022/06/12 10:59:35;;;;;;;2.83;2.08;;;14.60;61.50;;;;;;5031790;28;20196;-58
2022/06/12 11:02:42;;;;;;;2.10;1.90;;;14.60;61.90;;;;;;5031543;28;20203;-59
2022/06/12 11:05:42;;;;;;;2.10;1.90;;;14.60;62.10;;;;;;5027125;28;20670;-58
2022/06/12 11:08:31;;;;;;;2.10;1.90;;;14.60;62.00;;;;;;5009714;28;20213;-59
2022/06/12 11:11:09;;;;;;;2.83;2.05;;;14.60;62.00;;;;;;5010958;28;20304;-59
2022/06/12 11:14:00;;;;;;;3.20;2.20;;;14.70;62.10;;;;;;5000440;28;20669;-59
2022/06/12 11:16:46;;;;;;;2.88;2.30;;;14.70;62.10;;;;;;4991507;28;20295;-59
2022/06/12 11:19:27;;;;;;;2.30;2.10;;;14.70;62.00;;;;;;4991395;28;20213;-59
2022/06/12 11:22:09;;;;;;;3.00;2.22;;;14.70;61.90;;;;;;5007602;28;20209;-58
2022/06/12 11:24:54;;;;;;;3.42;2.47;;;14.70;61.90;;;;;;5011578;28;20598;-60
2022/06/12 11:27:38;;;;;;;3.47;2.38;;;14.70;61.80;;;;;;5011382;28;20216;-59
2022/06/12 11:30:22;;;;;;;2.97;2.35;;;14.70;61.90;;;;;;5012013;28;20196;-60
2022/06/12 11:33:08;;;;;;;2.67;2.30;;;14.70;61.80;;;;;;5011538;28;21054;-59
2022/06/12 11:35:49;;;;;;;3.50;2.30;;;14.70;61.80;;;;;;5010813;28;20197;-59
2022/06/12 11:38:37;;;;;;;3.22;2.25;;;14.70;61.70;;;;;;5010775;28;20235;-59
2022/06/12 11:41:16;;;;;;;5.13;2.50;;;14.70;61.60;;;;;;5011019;28;20193;-57
2022/06/12 11:43:54;;;;;;;2.90;2.60;;;14.70;61.50;;;;;;5013763;28;20217;-58
2022/06/12 11:46:34;;;;;;;4.35;2.20;;;14.70;61.50;;;;;;5011405;28;20199;-59
2022/06/12 11:49:33;;;;;;;3.20;2.08;;;14.70;61.40;;;;;;5011070;28;20310;-60
2022/06/12 11:52:32;;;;;;;4.25;2.40;;;14.70;61.40;;;;;;5010298;28;20257;-59
2022/06/12 11:55:18;;;;;;;2.58;2.05;;;14.70;61.30;;;;;;5005797;28;20351;-59
2022/06/12 11:58:09;;;;;;;2.78;2.20;;;14.70;61.20;;;;;;5011226;28;20225;-59
2022/06/12 12:00:54;;;;;;;2.78;2.13;;;14.70;61.20;;;;;;5011047;28;20193;-59
2022/06/12 12:04:03;;;;;;;2.97;2.17;;;14.70;61.10;;;;;;5010589;28;20224;-59
2022/06/12 12:07:08;;;;;;;3.63;2.33;;;14.70;61.10;;;;;;5012215;28;20673;-59
2022/06/12 12:09:55;;;;;;;3.08;2.42;;;14.70;61.00;;;;;;4979296;28;20192;-58
2022/06/12 12:12:31;;;;;;;3.13;2.30;;;14.70;60.90;;;;;;5010622;28;20684;-61
2022/06/12 12:15:06;;;;;;;3.15;2.22;;;14.70;61.00;;;;;;5010286;28;20225;-61
2022/06/12 12:17:41;;;;;;;2.53;2.10;;;14.70;61.00;;;;;;5010617;28;20212;-60
2022/06/12 12:20:21;;;;;;;2.75;2.10;;;14.70;61.10;;;;;;5010606;28;20200;-60
2022/06/12 12:22:56;;;;;;;3.25;2.33;;;14.70;61.00;;;;;;5010203;28;20196;-59
2022/06/12 12:25:30;;;;;;;3.47;2.08;;;14.70;61.00;;;;;;5009957;28;20211;-60
2022/06/12 12:28:07;;;;;;;3.58;2.35;;;14.70;61.00;;;;;;5010353;28;20247;-60
2022/06/12 12:30:42;;;;;;;4.60;2.60;;;14.70;60.90;;;;;;5011167;28;20723;-60
2022/06/12 12:33:19;;;;;;;4.40;2.00;;;14.70;60.90;;;;;;5010102;28;20203;-60
2022/06/12 12:41:27;;;;;;;3.90;2.15;;;14.70;60.60;;;;;;5010622;28;20288;-59
2022/06/12 12:44:01;;;;;;;3.22;2.40;;;14.70;60.60;;;;;;5010307;28;20225;-59
2022/06/12 12:46:47;;;;;;;4.18;2.60;;;14.60;60.50;;;;;;5010364;28;20595;-59
2022/06/12 12:49:29;;;;;;;3.00;2.30;;;14.60;60.50;;;;;;5009982;28;20224;-60
2022/06/12 12:52:11;;;;;;;4.28;2.72;;;14.60;60.40;;;;;;5009115;28;20666;-60
2022/06/12 12:54:48;;;;;;;3.97;2.40;;;14.60;60.40;;;;;;5009331;28;20201;-59
2022/06/12 12:57:21;;;;;;;4.30;2.40;;;14.60;60.20;;;;;;5009213;28;20726;-60
2022/06/12 12:59:55;;;;;;;3.03;2.20;;;14.60;60.20;;;;;;5009340;28;20197;-60
2022/06/12 13:02:29;;;;;;;5.50;2.40;;;14.60;60.20;;;;;;5009666;28;20201;-60
2022/06/12 13:05:02;;;;;;;3.13;2.30;;;14.60;60.20;;;;;;5009230;28;20289;-60
2022/06/12 13:07:49;;;;;;;3.55;2.30;;;14.60;60.20;;;;;;5008422;28;20221;-61
2022/06/12 13:10:42;;;;;;;3.95;2.58;;;14.50;60.10;;;;;;5009411;28;20208;-59
2022/06/12 13:13:51;;;;;;;5.22;2.47;;;14.60;60.10;;;;;;5009879;28;20205;-60
2022/06/12 13:16:31;;;;;;;3.88;2.50;;;14.60;60.00;;;;;;4991429;28;20665;-60
2022/06/12 13:19:17;;;;;;;4.93;2.22;;;14.60;60.00;;;;;;5012266;28;20215;-60
2022/06/12 13:22:01;;;;;;;4.20;2.28;;;14.60;60.00;;;;;;5009100;28;20222;-59
2022/06/12 13:24:38;;;;;;;4.15;2.20;;;14.60;60.00;;;;;;5009322;28;20224;-60
2022/06/12 13:27:22;;;;;;;3.88;2.63;;;14.50;59.90;;;;;;5011991;28;20200;-59
2022/06/12 13:29:54;;;;;;;3.13;2.15;;;14.50;59.80;;;;;;5014083;28;20204;-60
2022/06/12 13:32:31;;;;;;;4.50;2.75;;;14.50;59.70;;;;;;5013653;28;20197;-59
2022/06/12 13:35:03;;;;;;;3.22;2.00;;;14.50;59.70;;;;;;5013592;28;20561;-59
2022/06/12 13:37:37;;;;;;;5.22;2.20;;;14.50;59.70;;;;;;5012427;28;20217;-59
2022/06/12 13:40:26;;;;;;;3.03;2.42;;;14.50;59.80;;;;;;5013187;28;20219;-59
2022/06/12 13:43:12;;;;;;;3.17;2.15;;;14.50;59.70;;;;;;5013253;28;20196;-59
2022/06/12 13:45:53;;;;;;;5.43;2.40;;;14.50;59.70;;;;;;5015774;28;20213;-59
2022/06/12 13:48:27;;;;;;;3.08;2.15;;;14.50;59.70;;;;;;5013521;28;20246;-59
2022/06/12 13:51:04;;;;;;;2.83;2.00;;;14.40;59.60;;;;;;5012729;28;20203;-60
2022/06/12 13:53:41;;;;;;;3.22;2.10;;;14.40;59.70;;;;;;5012663;28;20208;-60
2022/06/12 13:56:15;;;;;;;4.13;2.05;;;14.40;59.70;;;;;;5012490;28;20223;-60
2022/06/12 13:58:52;;;;;;;3.53;2.00;;;14.40;59.60;;;;;;5012364;28;20637;-62